Time;durP1;ratioP1;P1;durP2;ratioP2;P2;SDS_P1;SDS_P2;PMS_P1;PMS_P2;Temp;Humidity;BMP_temperature;BMP_pressure;BME280_temperature;BME280_humidity;BME280_pressure;Samples;Min_cycle;Max_cycle;Signal;HPM_P1;HPM_P2
2022/07/17 00:00:01;;;;;;;3.30;2.10;;;10.80;99.90;;;;;;5029218;28;20378;-81
2022/07/17 00:02:27;;;;;;;6.20;2.67;;;10.80;99.90;;;;;;5030045;28;20389;-81
2022/07/17 00:04:53;;;;;;;4.82;2.55;;;10.70;99.90;;;;;;5029772;28;20435;-79
2022/07/17 00:07:18;;;;;;;5.20;2.63;;;10.70;99.90;;;;;;5011665;28;20390;-81
2022/07/17 00:09:44;;;;;;;5.87;2.33;;;10.70;99.90;;;;;;5027153;28;20385;-81
2022/07/17 00:12:10;;;;;;;7.07;2.50;;;10.60;99.90;;;;;;5028929;28;20492;-81
2022/07/17 00:14:35;;;;;;;6.13;2.40;;;10.50;99.90;;;;;;5029036;28;20750;-81
2022/07/17 00:17:01;;;;;;;5.90;2.20;;;10.40;99.90;;;;;;5028918;28;21191;-81
2022/07/17 00:19:27;;;;;;;6.57;2.58;;;10.40;99.90;;;;;;5029710;28;20407;-81
2022/07/17 00:21:53;;;;;;;5.10;2.55;;;10.40;99.90;;;;;;5029134;28;20427;-81
2022/07/17 00:24:21;;;;;;;4.68;2.70;;;10.30;99.90;;;;;;5028826;28;20382;-81
2022/07/17 00:26:51;;;;;;;5.80;2.70;;;10.30;99.90;;;;;;5011071;28;20472;-81
2022/07/17 00:29:17;;;;;;;5.20;2.78;;;10.30;99.90;;;;;;5028705;28;20369;-81
2022/07/17 00:31:43;;;;;;;8.07;2.90;;;10.30;99.90;;;;;;5028476;28;20452;-81
2022/07/17 00:34:09;;;;;;;6.70;2.20;;;10.20;99.90;;;;;;5011215;28;20381;-81
2022/07/17 00:36:35;;;;;;;5.30;2.40;;;10.20;99.90;;;;;;5028763;28;20405;-81
2022/07/17 00:39:00;;;;;;;5.43;2.40;;;10.10;99.90;;;;;;5010834;28;20887;-81
2022/07/17 00:41:26;;;;;;;5.63;2.47;;;10.10;99.90;;;;;;5028164;28;20875;-81
2022/07/17 00:43:52;;;;;;;5.85;2.40;;;10.00;99.90;;;;;;5028374;28;20401;-81
2022/07/17 00:46:18;;;;;;;3.40;2.00;;;10.00;99.90;;;;;;5010318;28;20905;-81
2022/07/17 00:48:45;;;;;;;6.20;2.63;;;;;;;;;;5028577;28;20776;-81
2022/07/17 00:51:10;;;;;;;5.23;2.50;;;9.90;99.90;;;;;;5008810;28;20386;-81
2022/07/17 00:53:37;;;;;;;7.17;2.43;;;9.90;99.90;;;;;;5025260;28;20739;-81
2022/07/17 00:56:05;;;;;;;8.98;2.92;;;9.80;99.90;;;;;;5009601;28;20409;-81
2022/07/17 00:58:34;;;;;;;8.95;3.15;;;9.80;99.90;;;;;;5027417;28;20385;-81
2022/07/17 01:01:04;;;;;;;8.43;2.50;;;9.70;99.90;;;;;;5027714;28;20612;-81
2022/07/17 01:03:29;;;;;;;5.88;2.28;;;9.70;99.90;;;;;;5026837;28;20460;-81
2022/07/17 01:05:55;;;;;;;4.65;2.25;;;9.60;99.90;;;;;;5027416;28;20952;-81
2022/07/17 01:08:20;;;;;;;7.57;2.73;;;9.60;99.90;;;;;;5027434;28;20370;-81
2022/07/17 01:10:46;;;;;;;4.70;2.50;;;9.50;99.90;;;;;;5010202;28;20400;-81
2022/07/17 01:13:12;;;;;;;4.90;2.30;;;9.50;99.90;;;;;;5026605;28;20390;-81
2022/07/17 01:15:39;;;;;;;4.82;2.45;;;9.50;99.90;;;;;;5027370;28;20413;-82
2022/07/17 01:18:10;;;;;;;5.22;2.45;;;9.40;99.90;;;;;;5027761;28;20439;-81
2022/07/17 01:20:38;;;;;;;4.78;2.30;;;9.30;99.90;;;;;;5024618;28;20428;-81
2022/07/17 01:23:04;;;;;;;5.43;2.50;;;9.30;99.90;;;;;;5010581;28;20390;-81
2022/07/17 01:25:30;;;;;;;6.20;2.40;;;9.30;99.90;;;;;;5028727;28;20385;-81
2022/07/17 01:27:56;;;;;;;7.35;2.45;;;9.20;99.90;;;;;;5028760;28;20409;-81
2022/07/17 01:30:21;;;;;;;5.40;2.50;;;9.20;99.90;;;;;;5028548;28;20806;-82
2022/07/17 01:32:47;;;;;;;5.35;2.58;;;9.10;99.90;;;;;;5011064;28;20439;-81
2022/07/17 01:35:14;;;;;;;5.93;2.70;;;9.00;99.90;;;;;;5010754;28;20437;-81
2022/07/17 01:37:41;;;;;;;4.70;2.73;;;9.00;99.90;;;;;;5010932;28;20374;-81
2022/07/17 01:40:09;;;;;;;5.18;2.55;;;8.90;99.90;;;;;;5028244;28;20408;-81
2022/07/17 01:42:35;;;;;;;5.25;2.85;;;8.90;99.90;;;;;;5024018;28;20425;-81
2022/07/17 01:45:01;;;;;;;5.15;2.40;;;8.90;99.90;;;;;;5028616;28;20902;-80
2022/07/17 01:47:27;;;;;;;6.63;2.65;;;8.80;99.90;;;;;;5027450;28;20378;-81
2022/07/17 01:49:55;;;;;;;5.25;2.63;;;8.80;99.90;;;;;;5028590;28;20456;-81
2022/07/17 01:52:23;;;;;;;5.65;2.70;;;8.80;99.90;;;;;;5028263;28;20428;-81
2022/07/17 01:54:49;;;;;;;6.55;2.70;;;8.70;99.90;;;;;;5028452;28;20397;-81
2022/07/17 01:57:15;;;;;;;4.10;2.22;;;8.70;99.90;;;;;;5028435;28;20439;-81
2022/07/17 01:59:41;;;;;;;3.95;2.88;;;8.70;99.90;;;;;;5028564;28;20472;-81
2022/07/17 02:02:08;;;;;;;5.28;2.70;;;8.70;99.90;;;;;;5028175;28;20436;-81
2022/07/17 02:04:36;;;;;;;4.50;2.30;;;8.70;99.90;;;;;;5028822;28;20880;-81
2022/07/17 02:07:03;;;;;;;4.20;2.47;;;8.80;99.90;;;;;;5028396;28;20890;-81
2022/07/17 02:09:28;;;;;;;6.65;2.78;;;8.70;99.90;;;;;;5028223;28;20460;-81
2022/07/17 02:11:54;;;;;;;7.03;2.97;;;8.70;99.90;;;;;;5027838;28;20527;-81
2022/07/17 02:14:20;;;;;;;5.60;2.72;;;8.70;99.90;;;;;;5028049;28;20421;-81
2022/07/17 02:16:46;;;;;;;6.18;2.63;;;8.70;99.90;;;;;;5009930;28;20416;-81
2022/07/17 02:19:12;;;;;;;6.75;2.63;;;8.70;99.90;;;;;;5028540;28;20382;-81
2022/07/17 02:21:38;;;;;;;6.63;2.42;;;8.60;99.90;;;;;;5014012;28;20475;-81
2022/07/17 02:24:04;;;;;;;3.80;2.70;;;8.60;99.90;;;;;;5025291;28;20385;-80
2022/07/17 02:26:30;;;;;;;4.00;2.47;;;8.60;99.90;;;;;;5031552;28;20731;-81
2022/07/17 02:28:56;;;;;;;5.32;2.83;;;8.60;99.90;;;;;;5031692;28;20947;-81
2022/07/17 02:31:21;;;;;;;4.93;2.72;;;8.70;99.90;;;;;;5031342;28;20463;-81
2022/07/17 02:33:47;;;;;;;4.93;2.80;;;8.60;99.90;;;;;;5031648;28;20967;-80
2022/07/17 02:36:13;;;;;;;5.27;2.70;;;8.60;99.90;;;;;;4995292;28;20905;-80
2022/07/17 02:38:39;;;;;;;6.73;2.57;;;8.60;99.90;;;;;;5030414;28;20500;-80
2022/07/17 02:41:05;;;;;;;6.18;3.00;;;8.50;99.90;;;;;;5030821;28;21242;-81
2022/07/17 02:43:30;;;;;;;5.82;2.63;;;8.50;99.90;;;;;;5031360;28;20382;-81
2022/07/17 02:45:56;;;;;;;5.68;2.90;;;8.50;99.90;;;;;;5031351;28;20465;-81
2022/07/17 02:48:22;;;;;;;6.78;2.72;;;8.50;99.90;;;;;;5031477;28;20427;-81
2022/07/17 02:50:47;;;;;;;4.73;2.57;;;8.40;99.90;;;;;;5030824;28;20508;-80
2022/07/17 02:53:13;;;;;;;6.90;3.00;;;8.40;99.90;;;;;;5030853;28;20505;-81
2022/07/17 02:55:38;;;;;;;6.43;2.90;;;8.40;99.90;;;;;;5013425;28;20436;-80
2022/07/17 02:58:04;;;;;;;5.83;3.07;;;8.40;99.90;;;;;;5013152;28;20429;-80
2022/07/17 03:00:30;;;;;;;5.70;3.07;;;8.50;99.90;;;;;;5031119;28;20747;-80
2022/07/17 03:02:56;;;;;;;6.72;3.05;;;8.50;99.90;;;;;;5030918;28;20393;-80
2022/07/17 03:05:22;;;;;;;6.55;2.90;;;8.50;99.90;;;;;;5030752;28;21117;-80
2022/07/17 03:07:48;;;;;;;5.33;2.73;;;8.50;99.90;;;;;;5030514;28;20920;-80
2022/07/17 03:10:14;;;;;;;6.67;3.20;;;8.50;99.90;;;;;;5026877;28;20652;-81
2022/07/17 03:12:40;;;;;;;6.07;2.97;;;8.50;99.90;;;;;;5030287;28;20385;-81
2022/07/17 03:15:07;;;;;;;4.53;2.83;;;8.40;99.90;;;;;;5030713;28;20972;-81
2022/07/17 03:17:33;;;;;;;4.45;2.80;;;8.40;99.90;;;;;;5030927;28;20451;-81
2022/07/17 03:19:59;;;;;;;6.85;3.28;;;8.40;99.90;;;;;;5030581;28;20382;-81
2022/07/17 03:22:25;;;;;;;7.35;2.88;;;8.50;99.90;;;;;;5012806;28;20751;-80
2022/07/17 03:24:53;;;;;;;4.43;2.75;;;8.50;99.90;;;;;;5030460;28;20382;-81
2022/07/17 03:27:19;;;;;;;4.97;2.78;;;8.50;99.90;;;;;;5029914;28;20413;-81
2022/07/17 03:29:45;;;;;;;4.70;2.80;;;8.50;99.90;;;;;;5030774;28;20413;-80
2022/07/17 03:32:10;;;;;;;5.85;2.72;;;8.50;99.90;;;;;;5012305;28;20801;-81
2022/07/17 03:34:37;;;;;;;5.50;3.10;;;8.40;99.90;;;;;;5030541;28;20385;-80
2022/07/17 03:37:03;;;;;;;6.07;2.83;;;8.50;99.90;;;;;;5028547;28;20875;-81
2022/07/17 03:39:29;;;;;;;32.92;5.78;;;8.60;99.90;;;;;;5030178;28;20393;-80
2022/07/17 03:41:55;;;;;;;216.02;28.42;;;8.70;99.90;;;;;;5030015;28;20390;-82
2022/07/17 03:44:21;;;;;;;287.83;37.08;;;8.70;99.90;;;;;;5028842;28;20408;-82
2022/07/17 03:46:46;;;;;;;143.70;21.20;;;8.70;99.90;;;;;;5030504;28;20374;-83
2022/07/17 03:49:12;;;;;;;113.13;15.20;;;8.80;99.90;;;;;;5030246;28;20462;-82
2022/07/17 03:51:38;;;;;;;27.67;6.18;;;8.80;99.90;;;;;;5006032;28;20397;-82
2022/07/17 03:54:03;;;;;;;37.75;6.50;;;8.80;99.90;;;;;;5012395;28;20440;-82
2022/07/17 03:56:29;;;;;;;33.70;6.70;;;8.90;99.90;;;;;;5029787;28;21019;-80
2022/07/17 03:58:55;;;;;;;22.17;4.73;;;8.90;99.90;;;;;;5029952;28;20422;-82
2022/07/17 04:01:20;;;;;;;26.30;5.32;;;9.00;99.90;;;;;;5029471;28;20524;-82
2022/07/17 04:03:46;;;;;;;15.88;4.40;;;9.10;99.90;;;;;;5029727;28;20390;-82
2022/07/17 04:06:12;;;;;;;15.87;4.40;;;9.10;99.90;;;;;;5029515;28;20393;-82
2022/07/17 04:08:37;;;;;;;18.63;4.07;;;9.40;99.90;;;;;;5029812;28;20887;-82
2022/07/17 04:11:03;;;;;;;19.27;3.90;;;9.50;99.90;;;;;;5029357;28;20374;-81
2022/07/17 04:13:29;;;;;;;12.77;3.65;;;9.60;99.90;;;;;;5011786;28;20401;-82
2022/07/17 04:15:59;;;;;;;14.00;3.67;;;9.60;99.90;;;;;;5029786;28;20401;-82
2022/07/17 04:18:34;;;;;;;8.65;3.20;;;9.60;99.90;;;;;;5029434;28;20929;-82
2022/07/17 04:21:08;;;;;;;12.93;3.67;;;9.70;99.90;;;;;;5029371;28;20413;-82
2022/07/17 04:23:34;;;;;;;15.17;3.90;;;9.80;99.90;;;;;;5012047;28;20412;-82
2022/07/17 04:26:00;;;;;;;12.63;3.90;;;9.40;99.90;;;;;;5022753;28;20374;-82
2022/07/17 04:28:26;;;;;;;9.02;3.25;;;10.00;99.90;;;;;;5029283;28;20389;-82
2022/07/17 04:30:52;;;;;;;7.22;3.42;;;10.10;99.90;;;;;;5027193;28;20897;-81
2022/07/17 04:33:17;;;;;;;9.18;3.17;;;10.20;99.90;;;;;;5028751;28;20386;-81
2022/07/17 04:35:44;;;;;;;6.60;2.90;;;10.40;99.90;;;;;;5029086;28;20906;-81
2022/07/17 04:38:10;;;;;;;7.25;3.15;;;10.50;99.90;;;;;;5029364;28;20381;-82
2022/07/17 04:40:37;;;;;;;9.05;3.05;;;10.70;99.90;;;;;;5028766;28;20386;-82
2022/07/17 04:43:03;;;;;;;6.75;3.08;;;10.80;99.90;;;;;;5028768;28;21409;-82
2022/07/17 04:45:29;;;;;;;4.88;2.22;;;11.00;99.90;;;;;;5029186;28;20385;-82
2022/07/17 04:47:55;;;;;;;6.55;2.70;;;11.30;99.90;;;;;;5028875;28;20406;-82
2022/07/17 04:50:21;;;;;;;7.13;2.38;;;11.70;99.90;;;;;;5029547;28;20390;-81
2022/07/17 04:52:47;;;;;;;5.95;2.45;;;12.20;99.90;;;;;;5027164;28;20412;-82
2022/07/17 04:55:12;;;;;;;11.65;3.15;;;12.50;99.90;;;;;;5029156;28;20452;-82
2022/07/17 04:57:38;;;;;;;6.97;2.87;;;12.80;99.90;;;;;;5029366;28;20382;-81
2022/07/17 05:00:06;;;;;;;8.33;3.13;;;13.00;99.90;;;;;;5028882;28;21254;-82
2022/07/17 05:02:32;;;;;;;7.78;2.88;;;13.10;99.90;;;;;;5010920;28;20407;-82
2022/07/17 05:04:58;;;;;;;6.75;2.30;;;13.20;99.90;;;;;;5029809;28;20369;-82
2022/07/17 05:07:23;;;;;;;8.82;2.45;;;13.50;99.90;;;;;;5029528;28;20405;-82
2022/07/17 05:09:49;;;;;;;5.93;2.30;;;13.80;99.90;;;;;;5029202;28;20393;-82
2022/07/17 05:12:15;;;;;;;6.90;2.30;;;14.10;99.90;;;;;;5027708;28;20887;-82
2022/07/17 05:14:40;;;;;;;5.32;1.98;;;14.40;99.90;;;;;;5010989;28;20397;-82
2022/07/17 05:17:06;;;;;;;6.60;2.27;;;14.70;99.90;;;;;;5027408;28;20469;-82
2022/07/17 05:19:32;;;;;;;6.90;2.60;;;15.10;99.90;;;;;;5011388;28;20759;-82
2022/07/17 05:21:58;;;;;;;7.22;2.47;;;15.20;99.90;;;;;;5010611;28;20389;-83
2022/07/17 05:24:24;;;;;;;4.93;2.05;;;15.40;99.90;;;;;;5029639;28;20382;-82
2022/07/17 05:26:50;;;;;;;8.70;2.33;;;15.80;99.90;;;;;;5028705;28;20939;-82
2022/07/17 05:29:15;;;;;;;8.10;2.67;;;16.00;99.90;;;;;;5029158;28;20374;-83
2022/07/17 05:31:41;;;;;;;6.18;2.30;;;16.20;99.90;;;;;;5029087;28;20380;-82
2022/07/17 05:34:07;;;;;;;5.20;1.70;;;16.50;99.90;;;;;;5028958;28;20381;-82
2022/07/17 05:36:32;;;;;;;5.75;2.17;;;16.60;99.90;;;;;;5029601;28;20540;-82
2022/07/17 05:38:58;;;;;;;7.25;1.98;;;16.70;99.90;;;;;;5029526;28;20866;-83
2022/07/17 05:41:24;;;;;;;6.40;2.10;;;16.70;99.90;;;;;;5028739;28;20373;-82
2022/07/17 05:43:49;;;;;;;7.85;2.10;;;16.60;99.90;;;;;;5030203;28;20382;-84
2022/07/17 05:46:15;;;;;;;7.70;2.10;;;16.60;99.90;;;;;;5011628;28;20496;-83
2022/07/17 05:48:41;;;;;;;5.63;2.20;;;16.60;99.90;;;;;;5011735;28;20401;-81
2022/07/17 05:51:06;;;;;;;4.53;2.03;;;16.70;99.90;;;;;;5011493;28;20373;-82
2022/07/17 05:53:32;;;;;;;7.40;2.17;;;17.10;99.90;;;;;;5013742;28;20962;-81
2022/07/17 05:55:58;;;;;;;6.53;2.00;;;17.30;99.90;;;;;;5033648;28;21219;-84
2022/07/17 05:58:24;;;;;;;5.43;2.00;;;17.30;99.90;;;;;;5016499;28;20411;-82
2022/07/17 06:00:50;;;;;;;6.60;2.27;;;17.40;99.90;;;;;;5032490;28;20397;-82
2022/07/17 06:03:16;;;;;;;6.43;2.05;;;17.50;99.90;;;;;;5033988;28;20431;-81
2022/07/17 06:05:41;;;;;;;7.07;2.20;;;17.60;99.90;;;;;;5015162;28;20385;-82
2022/07/17 06:08:07;;;;;;;4.40;1.80;;;17.50;99.90;;;;;;5033069;28;20386;-82
2022/07/17 06:10:33;;;;;;;6.15;1.90;;;17.50;99.90;;;;;;5032019;28;20380;-84
2022/07/17 06:12:59;;;;;;;7.27;2.50;;;17.60;99.90;;;;;;5032003;28;20874;-81
2022/07/17 06:15:25;;;;;;;8.05;2.50;;;17.60;99.90;;;;;;5015960;28;20453;-82
2022/07/17 06:17:51;;;;;;;6.90;2.22;;;17.60;99.90;;;;;;5014564;28;20390;-82
2022/07/17 06:20:17;;;;;;;6.67;2.23;;;17.60;99.90;;;;;;5032513;28;20469;-82
2022/07/17 06:22:43;;;;;;;5.82;1.92;;;17.60;99.90;;;;;;5032305;28;20849;-80
2022/07/17 06:25:15;;;;;;;4.55;1.75;;;17.60;99.90;;;;;;5014961;28;20373;-83
2022/07/17 06:27:41;;;;;;;5.05;1.70;;;17.70;99.90;;;;;;5032573;28;20914;-81
2022/07/17 06:30:09;;;;;;;8.85;2.50;;;18.00;99.90;;;;;;5023709;28;20888;-83
2022/07/17 06:32:35;;;;;;;4.63;2.10;;;18.20;99.90;;;;;;5030260;28;20882;-83
2022/07/17 06:35:01;;;;;;;6.53;1.90;;;18.50;99.90;;;;;;5014064;28;20410;-82
2022/07/17 06:37:27;;;;;;;7.00;2.33;;;18.60;99.90;;;;;;5031764;28;20373;-82
2022/07/17 06:39:52;;;;;;;6.60;1.98;;;18.70;99.90;;;;;;5032357;28;20386;-82
2022/07/17 06:42:18;;;;;;;6.80;2.03;;;18.60;99.90;;;;;;5031559;28;20465;-82
2022/07/17 06:44:43;;;;;;;4.00;1.85;;;18.60;99.90;;;;;;5031300;28;20447;-82
2022/07/17 06:47:09;;;;;;;8.23;2.20;;;18.60;99.90;;;;;;5032253;28;20519;-82
2022/07/17 06:49:35;;;;;;;6.57;2.40;;;18.50;99.90;;;;;;5031910;28;20401;-82
2022/07/17 06:52:01;;;;;;;5.65;2.10;;;18.30;99.90;;;;;;5032450;28;20382;-83
2022/07/17 06:54:26;;;;;;;6.87;2.20;;;18.40;99.90;;;;;;5014114;28;20393;-81
2022/07/17 06:56:53;;;;;;;8.93;2.45;;;18.50;99.90;;;;;;5031791;28;20404;-83
2022/07/17 06:59:19;;;;;;;7.15;2.60;;;18.70;99.90;;;;;;5030127;28;20464;-83
2022/07/17 07:01:45;;;;;;;4.70;1.90;;;18.80;99.90;;;;;;5030805;28;20401;-81
2022/07/17 07:04:11;;;;;;;8.18;2.08;;;18.80;99.90;;;;;;5022891;28;20403;-82
2022/07/17 07:06:37;;;;;;;11.15;2.25;;;18.80;99.90;;;;;;5031199;28;20399;-82
2022/07/17 07:09:03;;;;;;;7.97;2.13;;;18.60;99.90;;;;;;5031527;28;20386;-82
2022/07/17 07:11:29;;;;;;;7.30;2.15;;;18.50;99.90;;;;;;5031312;28;20418;-83
2022/07/17 07:13:55;;;;;;;6.70;2.20;;;18.50;99.90;;;;;;5012340;28;20846;-83
2022/07/17 07:16:20;;;;;;;7.70;2.15;;;18.50;99.90;;;;;;5029994;28;20422;-83
2022/07/17 07:18:46;;;;;;;6.70;1.83;;;18.50;99.90;;;;;;5029583;28;20366;-83
2022/07/17 07:21:12;;;;;;;5.93;2.15;;;18.90;99.90;;;;;;5020718;28;20418;-83
2022/07/17 07:23:38;;;;;;;5.88;1.80;;;19.40;99.90;;;;;;5012335;28;20433;-83
2022/07/17 07:26:03;;;;;;;4.30;1.90;;;19.60;99.90;;;;;;5027701;28;20922;-81
2022/07/17 07:28:29;;;;;;;4.80;1.90;;;;;;;;;;5029955;28;20397;-83
2022/07/17 07:30:55;;;;;;;4.47;1.75;;;19.20;99.90;;;;;;5012285;28;20476;-83
2022/07/17 07:33:21;;;;;;;5.50;1.97;;;18.80;99.90;;;;;;5030861;28;20481;-82
2022/07/17 07:35:46;;;;;;;7.07;2.35;;;18.60;99.90;;;;;;5029229;28;20883;-83
2022/07/17 07:38:12;;;;;;;4.67;1.77;;;18.40;99.90;;;;;;5030837;28;20377;-83
2022/07/17 07:40:38;;;;;;;5.28;1.88;;;18.40;99.90;;;;;;5030813;28;20835;-83
2022/07/17 07:43:03;;;;;;;6.77;2.20;;;18.20;99.90;;;;;;5030622;28;20409;-81
2022/07/17 07:45:30;;;;;;;5.13;1.67;;;18.00;99.90;;;;;;5031144;28;20420;-82
2022/07/17 07:47:56;;;;;;;6.68;1.90;;;18.40;99.90;;;;;;5032482;28;20389;-83
2022/07/17 07:50:24;;;;;;;3.57;1.60;;;18.60;99.90;;;;;;5030385;28;20966;-83
2022/07/17 07:52:51;;;;;;;5.50;1.92;;;18.80;99.90;;;;;;5031689;28;20414;-82
2022/07/17 07:55:16;;;;;;;6.93;2.08;;;18.80;99.90;;;;;;5031204;28;20404;-83
2022/07/17 07:57:42;;;;;;;4.47;1.67;;;18.90;99.90;;;;;;5032392;28;20435;-82
2022/07/17 08:00:10;;;;;;;7.22;1.98;;;19.20;99.90;;;;;;5030459;28;20393;-83
2022/07/17 08:02:39;;;;;;;7.35;2.15;;;;;;;;;;5031772;28;20373;-82
2022/07/17 08:05:04;;;;;;;4.25;1.55;;;19.80;99.90;;;;;;5013191;28;20433;-82
2022/07/17 08:07:31;;;;;;;6.07;1.73;;;19.70;99.90;;;;;;5030632;28;20420;-82
2022/07/17 08:09:58;;;;;;;5.30;1.58;;;19.60;99.90;;;;;;5031466;28;20396;-83
2022/07/17 08:12:23;;;;;;;9.20;2.33;;;;;;;;;;5031437;28;20412;-82
2022/07/17 08:14:50;;;;;;;4.88;1.77;;;19.60;99.90;;;;;;5013310;28;21238;-82
2022/07/17 08:17:16;;;;;;;7.13;1.80;;;20.10;99.90;;;;;;5032105;28;20400;-83
2022/07/17 08:19:41;;;;;;;4.07;1.77;;;20.40;99.90;;;;;;5030594;28;20390;-83
2022/07/17 08:22:07;;;;;;;5.03;1.67;;;20.60;98.90;;;;;;5031225;28;20388;-82
2022/07/17 08:24:33;;;;;;;7.47;2.10;;;20.40;98.80;;;;;;5030920;28;20867;-82
2022/07/17 08:26:58;;;;;;;6.53;1.67;;;20.30;99.70;;;;;;5032729;28;20374;-83
2022/07/17 08:29:24;;;;;;;5.30;1.70;;;20.30;99.50;;;;;;5032554;28;20493;-82
2022/07/17 08:31:50;;;;;;;5.63;1.90;;;20.10;99.00;;;;;;5032353;28;20388;-82
2022/07/17 08:34:15;;;;;;;9.93;2.20;;;20.10;99.30;;;;;;5031574;28;20381;-82
2022/07/17 08:36:42;;;;;;;4.90;1.60;;;20.00;99.90;;;;;;5032125;28;20405;-82
2022/07/17 08:39:08;;;;;;;5.97;1.88;;;20.20;99.90;;;;;;5032149;28;20404;-82
2022/07/17 08:41:37;;;;;;;5.07;1.80;;;20.20;99.00;;;;;;5012993;28;20394;-83
2022/07/17 08:44:07;;;;;;;7.60;1.90;;;20.40;99.60;;;;;;5013283;28;20382;-82
2022/07/17 08:46:39;;;;;;;8.20;1.85;;;20.60;98.10;;;;;;5029215;28;20441;-82
2022/07/17 08:49:10;;;;;;;4.55;1.65;;;20.60;97.80;;;;;;5029930;28;20394;-83
2022/07/17 08:51:35;;;;;;;3.70;1.60;;;20.60;97.80;;;;;;4996510;28;20491;-82
2022/07/17 08:54:01;;;;;;;5.40;1.85;;;20.40;98.30;;;;;;5030845;28;20378;-83
2022/07/17 08:56:27;;;;;;;4.27;1.60;;;20.40;98.70;;;;;;5013675;28;20402;-82
2022/07/17 08:58:55;;;;;;;5.40;1.70;;;20.60;99.30;;;;;;5014945;28;20417;-83
2022/07/17 09:01:21;;;;;;;4.80;1.75;;;20.60;98.80;;;;;;5032097;28;20401;-83
2022/07/17 09:04:13;;;;;;;7.53;1.98;;;20.60;98.70;;;;;;5031455;28;20449;-83
2022/07/17 09:06:39;;;;;;;7.90;1.80;;;20.70;99.00;;;;;;5028412;28;20820;-82
2022/07/17 09:09:13;;;;;;;5.80;1.73;;;20.50;99.10;;;;;;5032000;28;20464;-83
2022/07/17 09:11:51;;;;;;;5.10;2.00;;;20.60;99.20;;;;;;5030878;28;20736;-83
2022/07/17 09:14:18;;;;;;;6.97;1.95;;;20.70;98.70;;;;;;5031144;28;20385;-82
2022/07/17 09:17:04;;;;;;;6.15;1.90;;;20.90;98.00;;;;;;5030700;28;20444;-83
2022/07/17 09:19:35;;;;;;;5.27;1.67;;;20.70;98.00;;;;;;5033918;28;20705;-83
2022/07/17 09:22:16;;;;;;;7.18;1.90;;;20.60;98.60;;;;;;5031891;28;20420;-82
2022/07/17 09:24:43;;;;;;;3.95;1.60;;;20.60;99.20;;;;;;4997729;28;20756;-82
2022/07/17 09:27:11;;;;;;;5.15;1.90;;;20.70;98.80;;;;;;5008205;28;20473;-82
2022/07/17 09:29:51;;;;;;;6.90;1.85;;;20.60;97.70;;;;;;5028207;28;20385;-82
2022/07/17 09:32:23;;;;;;;4.65;1.67;;;20.40;99.60;;;;;;5035839;28;20382;-82
2022/07/17 09:34:49;;;;;;;6.32;1.73;;;20.60;98.50;;;;;;5019347;28;20385;-83
2022/07/17 09:37:15;;;;;;;5.27;1.63;;;20.70;98.20;;;;;;5019408;28;20401;-82
2022/07/17 09:39:41;;;;;;;3.53;1.70;;;20.80;98.90;;;;;;5019692;28;20385;-82
2022/07/17 09:42:07;;;;;;;5.45;1.83;;;21.10;98.80;;;;;;5036313;28;20382;-83
2022/07/17 09:44:33;;;;;;;8.25;2.30;;;21.30;99.00;;;;;;5035955;28;20442;-83
2022/07/17 09:47:01;;;;;;;6.60;2.00;;;21.50;98.40;;;;;;5019044;28;20484;-82
2022/07/17 09:49:27;;;;;;;6.50;1.98;;;22.20;96.90;;;;;;5017425;28;20381;-84
2022/07/17 09:51:54;;;;;;;5.60;2.13;;;22.20;95.50;;;;;;5016659;28;20543;-82
2022/07/17 09:54:23;;;;;;;5.30;1.90;;;21.90;96.00;;;;;;5036215;28;20451;-83
2022/07/17 09:56:51;;;;;;;6.87;2.20;;;22.10;96.50;;;;;;5035599;28;20410;-83
2022/07/17 09:59:18;;;;;;;6.88;1.88;;;21.80;96.10;;;;;;5016019;28;20895;-83
2022/07/17 10:01:48;;;;;;;5.85;1.75;;;21.70;97.00;;;;;;5003015;28;20806;-83
2022/07/17 10:04:16;;;;;;;6.00;1.83;;;21.80;96.20;;;;;;5033770;28;20374;-82
2022/07/17 10:06:43;;;;;;;7.68;2.20;;;22.00;95.80;;;;;;5000918;28;20952;-84
2022/07/17 10:09:09;;;;;;;4.93;1.80;;;22.00;96.10;;;;;;5030490;28;20485;-83
2022/07/17 10:11:37;;;;;;;8.68;2.38;;;22.10;96.40;;;;;;5028073;28;20401;-84
2022/07/17 10:14:10;;;;;;;7.30;1.95;;;22.20;96.00;;;;;;5011489;28;20492;-84
2022/07/17 10:16:38;;;;;;;6.53;1.90;;;22.10;95.30;;;;;;5026822;28;20468;-83
2022/07/17 10:19:15;;;;;;;5.57;1.60;;;21.80;95.80;;;;;;5010370;28;20528;-83
2022/07/17 10:21:56;;;;;;;6.22;1.77;;;21.60;96.90;;;;;;5010295;28;20467;-84
2022/07/17 10:24:22;;;;;;;6.93;1.92;;;21.70;97.60;;;;;;5031597;28;20725;-84
2022/07/17 10:26:49;;;;;;;5.20;1.80;;;21.90;96.40;;;;;;5029302;28;20385;-84
2022/07/17 10:29:28;;;;;;;6.47;1.90;;;22.10;96.50;;;;;;5033059;28;20384;-83
2022/07/17 10:31:55;;;;;;;5.63;1.90;;;22.30;96.40;;;;;;4999450;28;20785;-84
2022/07/17 10:34:40;;;;;;;7.00;2.20;;;22.40;95.30;;;;;;5000918;28;20466;-81
2022/07/17 10:37:18;;;;;;;5.68;1.75;;;22.70;95.20;;;;;;5013068;28;20466;-83
2022/07/17 10:39:59;;;;;;;5.75;1.73;;;22.80;94.90;;;;;;5032254;28;20428;-82
2022/07/17 10:42:38;;;;;;;4.55;1.73;;;22.80;96.10;;;;;;5012938;28;20381;-83
2022/07/17 10:45:18;;;;;;;5.05;1.65;;;23.30;99.90;;;;;;5027081;28;20378;-84
2022/07/17 10:47:53;;;;;;;7.78;1.85;;;;;;;;;;5030401;28;20754;-84
2022/07/17 10:50:21;;;;;;;6.80;2.10;;;;;;;;;;5030091;28;20392;-83
2022/07/17 10:52:56;;;;;;;4.15;1.70;;;;;;;;;;5031642;28;20399;-84
2022/07/17 10:55:23;;;;;;;6.25;1.98;;;;;;;;;;5029241;28;20475;-82
2022/07/17 10:57:49;;;;;;;6.63;2.08;;;;;;;;;;5029100;28;20469;-84
2022/07/17 11:00:16;;;;;;;5.45;1.80;;;;;;;;;;5011234;28;20475;-84
2022/07/17 11:02:42;;;;;;;7.40;2.47;;;;;;;;;;5030776;28;20378;-83
2022/07/17 11:05:12;;;;;;;6.30;2.35;;;;;;;;;;5032763;28;20405;-83
2022/07/17 11:07:56;;;;;;;6.40;2.15;;;22.20;93.90;;;;;;5030245;28;20382;-83
2022/07/17 11:10:25;;;;;;;6.07;3.90;;;21.90;94.40;;;;;;5012549;28;20385;-83
2022/07/17 11:12:51;;;;;;;22.30;20.40;;;21.80;95.30;;;;;;5014416;28;20461;-83
2022/07/17 11:15:18;;;;;;;7.28;2.28;;;21.90;94.20;;;;;;5030418;28;20460;-83
2022/07/17 11:17:49;;;;;;;5.77;2.13;;;22.10;93.20;;;;;;5031039;28;20448;-82
2022/07/17 11:20:17;;;;;;;5.40;1.83;;;22.20;92.80;;;;;;5013494;28;20419;-83
2022/07/17 11:22:43;;;;;;;5.07;2.03;;;22.30;93.20;;;;;;5025581;28;20581;-82
2022/07/17 11:25:11;;;;;;;4.63;1.67;;;22.50;92.80;;;;;;5013243;28;20824;-82
2022/07/17 11:27:38;;;;;;;6.05;1.80;;;22.40;92.70;;;;;;5029062;28;20798;-82
2022/07/17 11:30:05;;;;;;;5.00;1.65;;;22.20;92.20;;;;;;5029716;28;20397;-81
2022/07/17 11:32:38;;;;;;;4.10;1.90;;;22.30;93.70;;;;;;5030582;28;20393;-82
2022/07/17 11:35:18;;;;;;;4.68;1.63;;;22.30;93.80;;;;;;5011083;28;20417;-83
2022/07/17 11:37:44;;;;;;;7.18;2.13;;;22.40;92.60;;;;;;5022511;28;20404;-82
2022/07/17 11:40:11;;;;;;;5.43;1.70;;;22.30;93.20;;;;;;5009061;28;20409;-82
2022/07/17 11:42:37;;;;;;;4.10;1.73;;;22.30;93.40;;;;;;5005284;28;20867;-83
2022/07/17 11:45:03;;;;;;;4.82;1.80;;;22.10;93.50;;;;;;5014017;28;20382;-83
2022/07/17 11:47:29;;;;;;;4.13;1.83;;;22.20;93.10;;;;;;5022396;28;20373;-83
2022/07/17 11:50:24;;;;;;;6.22;1.75;;;22.20;91.60;;;;;;5027651;28;20394;-83
2022/07/17 11:52:50;;;;;;;6.72;1.90;;;22.20;93.20;;;;;;4996228;28;20438;-83
2022/07/17 11:55:16;;;;;;;5.80;1.88;;;22.20;92.50;;;;;;5013060;28;20497;-82
2022/07/17 11:57:47;;;;;;;4.75;1.70;;;22.40;92.70;;;;;;5011026;28;20391;-82
2022/07/17 12:00:15;;;;;;;4.68;1.70;;;22.50;91.80;;;;;;5011573;28;20379;-82
2022/07/17 12:02:41;;;;;;;4.68;1.80;;;22.60;92.50;;;;;;5018776;28;20910;-83
2022/07/17 12:05:07;;;;;;;6.88;1.52;;;22.70;92.60;;;;;;5011927;28;20502;-83
2022/07/17 12:07:43;;;;;;;4.40;1.50;;;22.90;91.00;;;;;;5014519;28;20385;-83
2022/07/17 12:10:21;;;;;;;4.70;1.80;;;22.90;92.30;;;;;;5031310;28;20740;-83
2022/07/17 12:13:05;;;;;;;5.80;1.75;;;22.80;91.40;;;;;;5012187;28;20790;-83
2022/07/17 12:15:57;;;;;;;5.35;1.70;;;22.60;92.10;;;;;;5029326;28;20413;-82
2022/07/17 12:18:28;;;;;;;3.78;1.73;;;22.70;91.70;;;;;;5008687;28;20860;-82
2022/07/17 12:21:05;;;;;;;4.85;1.77;;;22.70;92.20;;;;;;5002729;28;21017;-82
2022/07/17 12:23:39;;;;;;;4.72;1.85;;;22.60;92.20;;;;;;5007348;28;20395;-83
2022/07/17 12:26:10;;;;;;;5.35;1.50;;;22.80;90.90;;;;;;5005398;28;20395;-82
2022/07/17 12:28:36;;;;;;;5.95;1.90;;;22.80;91.60;;;;;;5026077;28;20468;-81
2022/07/17 12:31:02;;;;;;;4.65;1.70;;;22.80;91.90;;;;;;5020744;28;20387;-83
2022/07/17 12:33:28;;;;;;;5.50;1.70;;;22.90;91.30;;;;;;5006508;28;20393;-82
2022/07/17 12:35:54;;;;;;;3.90;1.63;;;23.00;91.50;;;;;;5015847;28;20403;-82
2022/07/17 12:38:20;;;;;;;4.15;1.58;;;23.10;91.10;;;;;;5018009;28;20386;-83
2022/07/17 12:40:46;;;;;;;4.60;1.75;;;23.20;90.50;;;;;;5019425;28;20454;-83
2022/07/17 12:43:11;;;;;;;4.13;1.85;;;23.30;91.40;;;;;;5019198;28;20421;-83
2022/07/17 12:45:37;;;;;;;5.60;1.70;;;23.30;90.60;;;;;;5021625;28;20397;-82
2022/07/17 12:48:03;;;;;;;6.22;1.85;;;23.30;90.10;;;;;;5022804;28;20380;-82
2022/07/17 12:50:29;;;;;;;4.07;1.83;;;23.10;91.30;;;;;;5003983;28;20382;-81
2022/07/17 12:52:54;;;;;;;6.75;1.90;;;23.00;91.10;;;;;;5025182;28;20397;-83